createdAt,value
2022-10-19T00:01:30.148Z,6.78
2022-10-19T00:03:56.662Z,6.57
2022-10-19T00:06:27.637Z,6.10
2022-10-19T00:09:00.266Z,5.87
2022-10-19T00:11:28.811Z,6.55
2022-10-19T00:13:56.830Z,6.03
2022-10-19T00:16:30.345Z,5.82
2022-10-19T00:18:59.021Z,5.05
2022-10-19T00:21:26.052Z,5.87
2022-10-19T00:23:52.829Z,5.68
2022-10-19T00:26:19.275Z,5.10
2022-10-19T00:28:45.811Z,5.63
2022-10-19T00:31:16.569Z,5.65
2022-10-19T00:33:46.486Z,5.13
2022-10-19T00:36:28.835Z,5.57
2022-10-19T00:38:56.424Z,5.90
2022-10-19T00:41:25.080Z,5.50
2022-10-19T00:44:02.776Z,6.10
2022-10-19T00:46:32.522Z,5.20
2022-10-19T00:49:11.206Z,5.22
2022-10-19T00:51:40.981Z,5.35
2022-10-19T00:54:08.893Z,5.93
2022-10-19T00:56:39.680Z,5.35
2022-10-19T00:59:07.929Z,4.67
2022-10-19T01:01:35.355Z,4.80
2022-10-19T01:04:03.702Z,5.45
2022-10-19T01:06:31.034Z,5.55
2022-10-19T01:08:57.453Z,5.28
2022-10-19T01:11:31.089Z,5.00
2022-10-19T01:14:34.616Z,5.25
2022-10-19T01:17:28.697Z,5.70
2022-10-19T01:20:21.250Z,5.43
2022-10-19T01:23:16.805Z,5.20
2022-10-19T01:25:46.197Z,4.83
2022-10-19T01:28:31.246Z,4.97
2022-10-19T01:31:24.050Z,5.55
2022-10-19T01:34:03.373Z,5.03
2022-10-19T01:36:42.003Z,4.70
2022-10-19T01:39:08.352Z,5.20
2022-10-19T01:41:59.906Z,4.78
2022-10-19T01:44:35.580Z,4.75
2022-10-19T01:47:10.783Z,4.72
2022-10-19T01:49:49.390Z,5.07
2022-10-19T01:52:19.027Z,5.87
2022-10-19T01:54:50.402Z,5.18
2022-10-19T01:57:22.796Z,5.35
2022-10-19T01:59:50.306Z,5.80
2022-10-19T02:02:19.799Z,6.72
2022-10-19T02:04:49.242Z,4.73
2022-10-19T02:07:16.471Z,4.72
2022-10-19T02:09:42.876Z,4.88
2022-10-19T02:12:11.333Z,5.03
2022-10-19T02:14:43.906Z,5.40
2022-10-19T02:17:14.681Z,4.97
2022-10-19T02:19:43.097Z,5.82
2022-10-19T02:22:10.102Z,5.65
2022-10-19T02:24:36.513Z,4.70
2022-10-19T02:27:05.529Z,4.90
2022-10-19T02:29:34.240Z,6.23
2022-10-19T02:32:01.761Z,5.68
2022-10-19T02:34:28.408Z,6.00
2022-10-19T02:36:55.626Z,5.70
2022-10-19T02:39:22.429Z,5.03
2022-10-19T02:41:52.178Z,4.83
2022-10-19T02:44:23.628Z,5.35
2022-10-19T02:47:05.269Z,5.47
2022-10-19T02:49:36.070Z,5.28
2022-10-19T02:52:05.938Z,6.20
2022-10-19T02:54:32.758Z,5.27
2022-10-19T02:56:59.323Z,5.40
2022-10-19T02:59:26.070Z,5.95
2022-10-19T03:01:52.842Z,6.30
2022-10-19T03:04:19.436Z,5.47
2022-10-19T03:06:45.883Z,5.57
2022-10-19T03:09:12.351Z,5.88
2022-10-19T03:11:38.774Z,6.03
2022-10-19T03:14:05.202Z,4.85
2022-10-19T03:16:31.755Z,5.32
2022-10-19T03:18:58.262Z,4.93
2022-10-19T03:21:24.752Z,5.32
2022-10-19T03:23:51.641Z,6.18
2022-10-19T03:26:18.204Z,5.18
2022-10-19T03:28:44.784Z,4.60
2022-10-19T03:31:11.555Z,4.57
2022-10-19T03:33:38.251Z,5.72
2022-10-19T03:36:24.490Z,5.45
2022-10-19T03:38:52.432Z,5.60
2022-10-19T03:41:20.636Z,5.72
2022-10-19T03:43:47.137Z,5.47
2022-10-19T03:46:13.709Z,5.07
2022-10-19T03:48:40.213Z,5.38
2022-10-19T03:51:18.581Z,6.10
2022-10-19T03:53:46.531Z,5.65
2022-10-19T03:56:15.321Z,5.80
2022-10-19T03:58:43.496Z,5.50
2022-10-19T04:01:21.956Z,6.13
2022-10-19T04:03:52.613Z,4.95
2022-10-19T04:06:21.962Z,5.57
2022-10-19T04:08:50.078Z,5.80
2022-10-19T04:11:18.789Z,5.05
2022-10-19T04:13:48.495Z,5.63
2022-10-19T04:16:15.006Z,6.32
2022-10-19T04:18:41.552Z,6.65
2022-10-19T04:21:29.535Z,6.87
2022-10-19T04:24:17.468Z,6.47
2022-10-19T04:26:46.883Z,6.15
2022-10-19T04:29:14.151Z,6.07
2022-10-19T04:31:40.978Z,7.00
2022-10-19T04:34:07.629Z,5.53
2022-10-19T04:36:34.731Z,5.82
2022-10-19T04:39:01.241Z,5.95
2022-10-19T04:41:27.779Z,6.45
2022-10-19T04:43:58.675Z,6.63
2022-10-19T04:46:26.774Z,5.63
2022-10-19T04:48:53.963Z,6.80
2022-10-19T04:51:21.334Z,8.18
2022-10-19T04:53:48.317Z,7.10
2022-10-19T04:56:18.584Z,6.97
2022-10-19T04:58:45.277Z,6.10
2022-10-19T05:01:14.423Z,6.70
2022-10-19T05:03:41.221Z,6.00
2022-10-19T05:06:08.611Z,6.05
2022-10-19T05:08:36.536Z,6.35
2022-10-19T05:11:08.482Z,5.90
2022-10-19T05:13:35.337Z,6.47
2022-10-19T05:16:04.472Z,6.13
2022-10-19T05:18:30.936Z,7.28
2022-10-19T05:21:15.832Z,6.18
2022-10-19T05:23:42.433Z,5.80
2022-10-19T05:26:15.454Z,6.35
2022-10-19T05:28:42.101Z,6.10
2022-10-19T05:31:16.679Z,6.60
2022-10-19T05:33:43.300Z,6.05
2022-10-19T05:36:20.797Z,5.73
2022-10-19T05:38:49.299Z,5.78
2022-10-19T05:41:16.615Z,6.55
2022-10-19T05:43:43.977Z,6.85
2022-10-19T05:46:17.933Z,7.13
2022-10-19T05:48:44.758Z,7.37
2022-10-19T05:51:13.172Z,6.85
2022-10-19T05:53:40.525Z,6.72
2022-10-19T05:56:08.871Z,6.68
2022-10-19T05:58:35.984Z,6.07
2022-10-19T06:01:02.792Z,5.60
2022-10-19T06:03:30.595Z,6.13
2022-10-19T06:05:57.997Z,6.65
2022-10-19T06:08:25.206Z,6.45
2022-10-19T06:10:51.880Z,6.35
2022-10-19T06:13:19.516Z,6.67
2022-10-19T06:15:50.783Z,6.32
2022-10-19T06:18:17.245Z,6.68
2022-10-19T06:20:43.726Z,7.22
2022-10-19T06:23:10.182Z,7.55
2022-10-19T06:25:36.929Z,7.60
2022-10-19T06:28:03.954Z,7.68
2022-10-19T06:30:30.405Z,8.73
2022-10-19T06:32:59.124Z,11.70
2022-10-19T06:35:25.750Z,11.85
2022-10-19T06:37:52.200Z,10.53
2022-10-19T06:40:18.723Z,9.45
2022-10-19T06:42:45.185Z,9.07
2022-10-19T06:45:11.634Z,8.48
2022-10-19T06:47:38.466Z,7.82
2022-10-19T06:50:06.870Z,8.73
2022-10-19T06:52:34.591Z,7.65
2022-10-19T06:55:01.822Z,8.32
2022-10-19T06:57:28.676Z,7.57
2022-10-19T06:59:55.497Z,7.03
2022-10-19T07:02:22.004Z,6.77
2022-10-19T07:04:48.521Z,6.57
2022-10-19T07:07:15.057Z,6.97
2022-10-19T07:09:41.814Z,8.57
2022-10-19T07:12:10.699Z,9.43
2022-10-19T07:14:39.663Z,9.90
2022-10-19T07:17:07.392Z,9.60
2022-10-19T07:19:33.992Z,8.40
2022-10-19T07:22:00.517Z,7.38
2022-10-19T07:24:27.512Z,6.85
2022-10-19T07:26:54.289Z,6.40
2022-10-19T07:29:20.858Z,5.63
2022-10-19T07:31:47.406Z,6.82
2022-10-19T07:34:14.582Z,5.55
2022-10-19T07:36:48.033Z,5.55
2022-10-19T07:39:16.894Z,5.30
2022-10-19T07:41:44.049Z,4.47
2022-10-19T07:44:13.408Z,5.15
2022-10-19T07:46:42.253Z,4.38
2022-10-19T07:49:13.198Z,4.72
2022-10-19T07:51:39.972Z,4.67
2022-10-19T07:54:06.491Z,4.90
2022-10-19T07:56:33.056Z,5.05
2022-10-19T07:59:00.471Z,6.07
2022-10-19T08:01:32.785Z,6.05
2022-10-19T08:06:46.683Z,6.75
2022-10-19T08:09:27.662Z,5.32
2022-10-19T08:11:59.622Z,4.97
2022-10-19T08:14:26.252Z,5.88
2022-10-19T08:16:52.787Z,4.87
2022-10-19T08:19:19.221Z,4.80
2022-10-19T08:21:47.129Z,4.35
2022-10-19T08:24:15.790Z,4.47
2022-10-19T08:26:42.558Z,5.07
2022-10-19T08:29:13.133Z,4.90
2022-10-19T08:31:40.927Z,4.47
2022-10-19T08:34:07.869Z,4.25
2022-10-19T08:36:35.607Z,4.53
2022-10-19T08:39:04.774Z,5.30
2022-10-19T08:41:52.442Z,5.40
2022-10-19T08:44:52.821Z,5.32
2022-10-19T08:47:35.463Z,5.53
2022-10-19T08:50:14.392Z,5.03
2022-10-19T08:52:43.253Z,5.30
2022-10-19T08:55:19.764Z,5.47
2022-10-19T08:57:58.131Z,4.78
2022-10-19T09:00:36.926Z,5.18
2022-10-19T09:03:55.311Z,4.22
2022-10-19T09:07:01.015Z,4.40
2022-10-19T09:09:30.716Z,3.70
2022-10-19T09:12:04.201Z,3.40
2022-10-19T09:14:36.452Z,3.55
2022-10-19T09:17:11.323Z,4.30
2022-10-19T09:19:38.040Z,3.28
2022-10-19T09:22:08.791Z,4.20
2022-10-19T09:25:00.959Z,3.17
2022-10-19T09:27:36.487Z,3.65
2022-10-19T09:30:06.938Z,4.18
2022-10-19T09:32:36.922Z,3.85
2022-10-19T09:35:27.900Z,3.37
2022-10-19T09:37:55.330Z,3.35
2022-10-19T09:40:27.358Z,3.30
2022-10-19T09:42:58.123Z,3.38
2022-10-19T09:45:46.446Z,3.38
2022-10-19T09:48:38.221Z,3.13
2022-10-19T09:51:12.774Z,3.22
2022-10-19T09:53:45.133Z,2.97
2022-10-19T09:56:18.978Z,3.17
2022-10-19T09:58:50.435Z,3.78
2022-10-19T10:01:41.914Z,3.10
2022-10-19T10:04:14.395Z,2.80
2022-10-19T10:06:42.855Z,2.97
2022-10-19T10:09:19.233Z,3.47
2022-10-19T10:11:49.549Z,2.65
2022-10-19T10:14:28.214Z,3.00
2022-10-19T10:16:57.147Z,3.30
2022-10-19T10:19:28.766Z,3.22
2022-10-19T10:21:57.973Z,2.35
2022-10-19T10:24:30.126Z,1.83
2022-10-19T10:27:05.121Z,2.67
2022-10-19T10:29:36.333Z,2.13
2022-10-19T10:32:11.241Z,2.13
2022-10-19T10:34:58.420Z,2.03
2022-10-19T10:37:43.257Z,2.67
2022-10-19T10:40:31.367Z,2.20
2022-10-19T10:43:07.505Z,2.42
2022-10-19T10:45:42.112Z,2.35
2022-10-19T10:48:30.340Z,2.25
2022-10-19T10:50:59.763Z,3.13
2022-10-19T10:53:32.178Z,2.27
2022-10-19T10:55:58.684Z,2.53
2022-10-19T10:58:37.182Z,3.42
2022-10-19T11:01:07.940Z,2.22
2022-10-19T11:03:48.874Z,3.10
2022-10-19T11:06:17.245Z,3.33
2022-10-19T11:08:46.442Z,2.53
2022-10-19T11:11:26.603Z,3.00
2022-10-19T11:14:00.157Z,2.95
2022-10-19T11:16:39.951Z,2.88
2022-10-19T11:19:26.004Z,2.63
2022-10-19T11:21:57.705Z,3.05
2022-10-19T11:24:41.931Z,2.45
2022-10-19T11:27:22.314Z,2.50
2022-10-19T11:29:54.800Z,2.65
2022-10-19T11:32:36.785Z,2.70
2022-10-19T11:35:12.063Z,3.05
2022-10-19T11:37:49.457Z,3.30
2022-10-19T11:41:16.445Z,2.65
2022-10-19T11:43:46.246Z,3.15
2022-10-19T11:46:20.930Z,2.80
2022-10-19T11:49:18.110Z,2.95
2022-10-19T11:51:53.455Z,3.40
2022-10-19T11:54:38.986Z,2.90
2022-10-19T11:57:11.842Z,4.20
2022-10-19T12:00:15.128Z,3.50
2022-10-19T12:03:10.843Z,4.05
2022-10-19T12:05:46.016Z,3.33
2022-10-19T12:08:25.996Z,3.65
2022-10-19T12:11:01.622Z,3.53
2022-10-19T12:13:45.865Z,3.37
2022-10-19T12:16:14.791Z,3.50
2022-10-19T12:19:00.863Z,3.00
2022-10-19T12:21:33.298Z,3.10
2022-10-19T12:24:03.507Z,3.83
2022-10-19T12:26:34.714Z,3.23
2022-10-19T12:29:06.110Z,2.70
2022-10-19T12:31:33.414Z,2.80
2022-10-19T12:34:18.255Z,2.90
2022-10-19T12:36:50.384Z,3.15
2022-10-19T12:39:22.741Z,2.77
2022-10-19T12:42:30.411Z,3.28
2022-10-19T12:45:27.047Z,3.08
2022-10-19T12:48:20.786Z,3.38
2022-10-19T12:50:50.279Z,2.90
2022-10-19T12:53:30.695Z,2.73
2022-10-19T12:56:09.725Z,3.00
2022-10-19T12:58:39.464Z,3.50
2022-10-19T13:01:13.520Z,2.80
2022-10-19T13:03:42.719Z,2.85
2022-10-19T13:06:18.137Z,2.70
2022-10-19T13:08:53.927Z,2.88
2022-10-19T13:11:21.574Z,2.70
2022-10-19T13:14:00.093Z,3.03
2022-10-19T13:16:29.500Z,3.25
2022-10-19T13:18:59.094Z,3.37
2022-10-19T13:21:47.359Z,2.60
2022-10-19T13:24:25.959Z,2.47
2022-10-19T13:27:25.397Z,2.90
2022-10-19T13:29:52.184Z,2.67
2022-10-19T13:32:37.773Z,3.07
2022-10-19T13:35:23.179Z,2.53
2022-10-19T13:38:11.523Z,3.00
2022-10-19T13:40:55.870Z,2.55
2022-10-19T13:43:22.233Z,2.70
2022-10-19T13:46:05.255Z,2.80
2022-10-19T13:49:16.093Z,2.20
2022-10-19T13:52:16.331Z,2.55
2022-10-19T13:55:16.966Z,2.42
2022-10-19T13:58:02.888Z,2.08
2022-10-19T14:00:47.309Z,2.30
2022-10-19T14:04:05.471Z,2.60
2022-10-19T14:06:46.322Z,2.45
2022-10-19T14:09:38.676Z,2.55
2022-10-19T14:12:18.758Z,2.15
2022-10-19T14:14:45.541Z,1.57
2022-10-19T14:17:21.364Z,1.65
2022-10-19T14:19:51.957Z,1.55
2022-10-19T14:22:23.457Z,2.25
2022-10-19T14:24:49.930Z,1.40
2022-10-19T14:27:21.994Z,1.60
2022-10-19T14:29:51.194Z,1.90
2022-10-19T14:32:21.027Z,1.77
2022-10-19T14:34:49.066Z,1.60
2022-10-19T14:37:26.872Z,1.73
2022-10-19T14:40:26.560Z,1.93
2022-10-19T14:42:55.734Z,1.40
2022-10-19T14:45:30.859Z,1.70
2022-10-19T14:48:03.029Z,2.20
2022-10-19T14:50:41.828Z,1.60
2022-10-19T14:53:20.238Z,1.80
2022-10-19T14:55:48.501Z,1.83
2022-10-19T14:58:20.195Z,2.22
2022-10-19T15:00:49.506Z,2.47
2022-10-19T15:03:26.959Z,2.42
2022-10-19T15:06:00.745Z,2.53
2022-10-19T15:08:42.527Z,3.28
2022-10-19T15:11:23.010Z,2.42
2022-10-19T15:13:58.403Z,2.03
2022-10-19T15:16:42.097Z,2.50
2022-10-19T15:19:32.270Z,2.27
2022-10-19T15:22:18.576Z,2.20
2022-10-19T15:25:19.430Z,2.40
2022-10-19T15:27:48.997Z,2.35
2022-10-19T15:30:18.471Z,2.55
2022-10-19T15:32:47.537Z,2.53
2022-10-19T15:35:25.457Z,3.05
2022-10-19T15:38:01.445Z,2.90
2022-10-19T15:40:38.548Z,2.92
2022-10-19T15:43:29.398Z,21.80
2022-10-19T15:46:01.051Z,7.03
2022-10-19T15:48:44.419Z,3.80
2022-10-19T15:51:26.108Z,4.13
2022-10-19T15:53:56.598Z,2.60
2022-10-19T15:56:25.447Z,2.83
2022-10-19T15:58:54.641Z,2.73
2022-10-19T16:01:24.532Z,2.60
2022-10-19T16:03:51.000Z,3.03
2022-10-19T16:06:19.222Z,2.65
2022-10-19T16:08:46.248Z,3.38
2022-10-19T16:11:17.930Z,2.90
2022-10-19T16:13:45.425Z,3.30
2022-10-19T16:16:24.512Z,3.22
2022-10-19T16:18:52.289Z,3.38
2022-10-19T16:21:22.641Z,3.00
2022-10-19T16:23:49.314Z,3.57
2022-10-19T16:26:17.040Z,3.47
2022-10-19T16:28:44.752Z,3.38
2022-10-19T16:31:11.286Z,3.13
2022-10-19T16:33:37.811Z,3.55
2022-10-19T16:36:06.531Z,4.23
2022-10-19T16:38:33.883Z,4.28
2022-10-19T16:41:09.025Z,4.75
2022-10-19T16:43:36.469Z,3.55
2022-10-19T16:46:03.942Z,4.00
2022-10-19T16:48:30.970Z,3.90
2022-10-19T16:51:07.005Z,4.18
2022-10-19T16:53:34.542Z,3.70
2022-10-19T16:56:05.586Z,3.85
2022-10-19T16:58:32.034Z,4.75
2022-10-19T17:01:01.430Z,4.03
2022-10-19T17:03:30.761Z,7.22
2022-10-19T17:05:57.220Z,5.65
2022-10-19T17:08:36.584Z,8.23
2022-10-19T17:11:11.553Z,5.55
2022-10-19T17:13:38.027Z,5.67
2022-10-19T17:16:06.021Z,5.88
2022-10-19T17:18:32.841Z,13.05
2022-10-19T17:21:20.413Z,5.45
2022-10-19T17:23:47.215Z,5.93
2022-10-19T17:26:13.837Z,11.67
2022-10-19T17:28:40.612Z,5.78
2022-10-19T17:31:13.495Z,25.83
2022-10-19T17:33:41.437Z,13.23
2022-10-19T17:36:18.894Z,17.38
2022-10-19T17:38:46.585Z,7.77
2022-10-19T17:41:16.638Z,7.68
2022-10-19T17:43:45.288Z,7.15
2022-10-19T17:46:14.926Z,10.60
2022-10-19T17:48:43.406Z,5.47
2022-10-19T17:51:24.801Z,5.80
2022-10-19T17:53:51.422Z,5.03
2022-10-19T17:56:20.599Z,11.40
2022-10-19T17:58:48.314Z,18.88
2022-10-19T18:01:16.699Z,14.50
2022-10-19T18:03:43.809Z,14.00
2022-10-19T18:06:15.748Z,8.85
2022-10-19T18:08:45.587Z,11.48
2022-10-19T18:11:19.459Z,7.40
2022-10-19T18:13:46.579Z,5.78
2022-10-19T18:16:16.770Z,8.07
2022-10-19T18:18:46.124Z,8.85
2022-10-19T18:21:15.030Z,6.43
2022-10-19T18:23:42.193Z,6.15
2022-10-19T18:26:11.090Z,5.80
2022-10-19T18:28:37.986Z,5.27
2022-10-19T18:31:21.604Z,5.68
2022-10-19T18:33:49.910Z,6.88
2022-10-19T18:36:16.573Z,5.30
2022-10-19T18:38:43.130Z,5.60
2022-10-19T18:43:43.562Z,11.10
2022-10-19T18:46:10.217Z,6.88
2022-10-19T18:48:38.033Z,6.32
2022-10-19T18:51:07.603Z,6.20
2022-10-19T18:53:34.809Z,5.87
2022-10-19T18:56:04.864Z,6.57
2022-10-19T18:58:31.717Z,5.88
2022-10-19T19:01:07.035Z,6.22
2022-10-19T19:03:34.877Z,5.78
2022-10-19T19:06:02.888Z,6.70
2022-10-19T19:08:29.679Z,5.93
2022-10-19T19:10:57.570Z,5.07
2022-10-19T19:13:24.053Z,5.90
2022-10-19T19:15:58.628Z,6.10
2022-10-19T19:18:25.784Z,5.17
2022-10-19T19:20:52.790Z,5.80
2022-10-19T19:23:19.530Z,5.43
2022-10-19T19:25:46.626Z,4.97
2022-10-19T19:28:13.191Z,5.65
2022-10-19T19:30:45.062Z,5.80
2022-10-19T19:33:12.276Z,6.60
2022-10-19T19:35:42.984Z,6.13
2022-10-19T19:38:10.469Z,5.82
2022-10-19T19:40:41.797Z,5.30
2022-10-19T19:43:09.645Z,5.47
2022-10-19T19:45:37.135Z,5.40
2022-10-19T19:48:05.136Z,5.40
2022-10-19T19:50:32.158Z,5.35
2022-10-19T19:52:59.267Z,5.95
2022-10-19T19:55:26.868Z,5.83
2022-10-19T19:57:54.471Z,5.43
2022-10-19T20:00:22.920Z,5.97
2022-10-19T20:02:57.245Z,5.82
2022-10-19T20:05:25.452Z,5.38
2022-10-19T20:07:52.798Z,6.37
2022-10-19T20:10:19.295Z,6.05
2022-10-19T20:12:47.174Z,6.25
2022-10-19T20:15:15.869Z,5.55
2022-10-19T20:17:42.804Z,6.05
2022-10-19T20:20:11.870Z,5.83
2022-10-19T20:22:38.774Z,5.03
2022-10-19T20:25:06.217Z,5.75
2022-10-19T20:27:36.547Z,6.03
2022-10-19T20:30:04.035Z,5.40
2022-10-19T20:32:30.818Z,5.87
2022-10-19T20:34:57.374Z,4.75
2022-10-19T20:37:24.159Z,5.68
2022-10-19T20:39:50.706Z,5.95
2022-10-19T20:42:18.814Z,6.00
2022-10-19T20:44:45.515Z,5.80
2022-10-19T20:47:12.017Z,6.25
2022-10-19T20:49:38.630Z,5.32
2022-10-19T20:52:05.165Z,5.45
2022-10-19T20:54:32.051Z,4.95
2022-10-19T20:56:59.253Z,4.60
2022-10-19T20:59:27.750Z,5.10
2022-10-19T21:01:56.648Z,5.70
2022-10-19T21:04:24.832Z,4.97
2022-10-19T21:06:52.503Z,5.53
2022-10-19T21:09:23.171Z,6.40
2022-10-19T21:11:51.128Z,6.07
2022-10-19T21:14:23.737Z,5.88
2022-10-19T21:16:53.575Z,5.80
2022-10-19T21:19:25.175Z,7.25
2022-10-19T21:21:57.445Z,5.70
2022-10-19T21:24:36.080Z,6.10
2022-10-19T21:27:05.234Z,6.28
2022-10-19T21:29:32.014Z,6.30
2022-10-19T21:31:58.548Z,5.68
2022-10-19T21:34:27.866Z,6.13
2022-10-19T21:36:54.945Z,6.18
2022-10-19T21:39:21.905Z,6.30
2022-10-19T21:41:49.095Z,6.43
2022-10-19T21:44:17.493Z,6.10
2022-10-19T21:46:46.871Z,6.07
2022-10-19T21:49:13.510Z,6.13
2022-10-19T21:51:46.814Z,6.30
2022-10-19T21:54:19.270Z,6.20
2022-10-19T21:56:46.578Z,6.07
2022-10-19T21:59:13.838Z,6.07
2022-10-19T22:01:41.855Z,6.57
2022-10-19T22:04:18.568Z,6.43
2022-10-19T22:06:45.185Z,5.65
2022-10-19T22:09:17.320Z,5.70
2022-10-19T22:11:43.866Z,5.80
2022-10-19T22:14:12.511Z,6.65
2022-10-19T22:16:40.203Z,5.32
2022-10-19T22:19:06.994Z,5.82
2022-10-19T22:21:34.500Z,5.20
2022-10-19T22:24:06.803Z,6.63
2022-10-19T22:26:36.934Z,5.88
2022-10-19T22:29:04.549Z,6.20
2022-10-19T22:31:32.685Z,6.13
2022-10-19T22:34:05.198Z,6.72
2022-10-19T22:36:31.841Z,5.97
2022-10-19T22:38:58.299Z,6.22
2022-10-19T22:42:21.147Z,6.18
2022-10-19T22:44:47.579Z,5.82
2022-10-19T22:47:14.014Z,6.60
2022-10-19T22:49:40.454Z,6.47
2022-10-19T22:52:06.962Z,6.18
2022-10-19T22:54:33.386Z,6.15
2022-10-19T22:56:59.925Z,6.50
2022-10-19T22:59:26.364Z,7.32
2022-10-19T23:01:52.947Z,7.20
2022-10-19T23:04:19.551Z,6.32
2022-10-19T23:06:45.977Z,6.85
2022-10-19T23:09:12.513Z,6.93
2022-10-19T23:11:38.925Z,7.40
2022-10-19T23:14:05.385Z,6.30
2022-10-19T23:16:31.906Z,5.90
2022-10-19T23:18:58.444Z,6.05
2022-10-19T23:21:24.944Z,7.20
2022-10-19T23:23:51.429Z,6.15
2022-10-19T23:26:20.441Z,6.37
2022-10-19T23:28:49.720Z,5.43
2022-10-19T23:31:19.291Z,6.45
2022-10-19T23:33:46.809Z,6.07
2022-10-19T23:36:16.344Z,6.00
2022-10-19T23:38:44.571Z,7.13
2022-10-19T23:41:11.787Z,6.25
2022-10-19T23:43:38.281Z,6.18
2022-10-19T23:46:05.374Z,6.03
2022-10-19T23:48:32.045Z,6.05
2022-10-19T23:50:59.980Z,5.87
2022-10-19T23:53:27.703Z,6.40
2022-10-19T23:56:05.939Z,5.95
2022-10-19T23:58:32.525Z,6.97
